Time;durP1;ratioP1;P1;durP2;ratioP2;P2;SDS_P1;SDS_P2;PMS_P1;PMS_P2;Temp;Humidity;BMP_temperature;BMP_pressure;BME280_temperature;BME280_humidity;BME280_pressure;Samples;Min_cycle;Max_cycle;Signal;HPM_P1;HPM_P2
2022/06/15 00:01:33;;;;;;;;;;;24.50;99.90;;;;;;5010768;28;20274;-79
2022/06/15 00:04:02;;;;;;;;;;;24.50;99.90;;;;;;5010386;28;19909;-78
2022/06/15 00:06:29;;;;;;;;;;;24.50;99.90;;;;;;5010248;28;20361;-78
2022/06/15 00:08:56;;;;;;;;;;;24.50;99.90;;;;;;5010331;28;19910;-78
2022/06/15 00:11:26;;;;;;;;;;;24.50;99.90;;;;;;5013810;28;20000;-79
2022/06/15 00:13:52;;;;;;;;;;;24.40;99.90;;;;;;5013890;28;19955;-79
2022/06/15 00:16:18;;;;;;;;;;;24.30;99.90;;;;;;5014234;28;19941;-79
2022/06/15 00:18:45;;;;;;;;;;;24.20;99.90;;;;;;5013974;28;19963;-78
2022/06/15 00:21:12;;;;;;;;;;;24.30;99.90;;;;;;5013822;28;19921;-78
2022/06/15 00:23:38;;;;;;;;;;;24.30;99.90;;;;;;5014411;28;19956;-78
2022/06/15 00:26:04;;;;;;;;;;;24.20;99.90;;;;;;5012776;28;19913;-78
2022/06/15 00:28:30;;;;;;;;;;;24.30;99.90;;;;;;5014108;28;20336;-79
2022/06/15 00:30:55;;;;;;;;;;;24.40;99.90;;;;;;5013900;28;19909;-78
2022/06/15 00:33:22;;;;;;;;;;;24.50;99.90;;;;;;5014334;28;19914;-78
2022/06/15 00:35:54;;;;;;;;;;;24.50;99.90;;;;;;5014141;28;19909;-78
2022/06/15 00:38:20;;;;;;;;;;;24.50;99.90;;;;;;5012834;28;19909;-79
2022/06/15 00:40:45;;;;;;;;;;;24.50;99.90;;;;;;5013783;28;20281;-78
2022/06/15 00:43:11;;;;;;;;;;;24.50;99.90;;;;;;5013628;28;19910;-79
2022/06/15 00:45:37;;;;;;;;;;;24.50;99.90;;;;;;5013744;28;19921;-78
2022/06/15 00:48:03;;;;;;;;;;;24.60;99.90;;;;;;5013895;28;19909;-78
2022/06/15 00:50:28;;;;;;;;;;;24.50;99.90;;;;;;5013753;28;19916;-78
2022/06/15 00:52:56;;;;;;;;;;;24.30;99.90;;;;;;5013000;28;20322;-78
2022/06/15 00:55:23;;;;;;;;;;;24.10;99.90;;;;;;5013641;28;19953;-79
2022/06/15 00:57:49;;;;;;;;;;;24.00;99.90;;;;;;5013610;28;19909;-79
2022/06/15 01:00:15;;;;;;;;;;;24.20;99.90;;;;;;5013736;28;19910;-78
2022/06/15 01:02:41;;;;;;;;;;;24.20;99.90;;;;;;4997742;28;20286;-78
2022/06/15 01:05:18;;;;;;;;;;;24.20;99.90;;;;;;5012823;28;19905;-78
2022/06/15 01:07:58;;;;;;;;;;;24.20;99.90;;;;;;5013539;28;19979;-79
2022/06/15 01:10:27;;;;;;;;;;;24.20;99.90;;;;;;5013026;28;19963;-78
2022/06/15 01:12:52;;;;;;;;;;;24.20;99.90;;;;;;5013347;28;20325;-79
2022/06/15 01:15:30;;;;;;;;;;;24.20;99.90;;;;;;5013375;28;19955;-79
2022/06/15 01:18:02;;;;;;;;;;;24.20;99.90;;;;;;5013896;28;19909;-79
2022/06/15 01:20:27;;;;;;;;;;;24.20;99.90;;;;;;5013332;28;19921;-78
2022/06/15 01:23:02;;;;;;;;;;;24.20;99.90;;;;;;5010388;28;20047;-79
2022/06/15 01:25:39;;;;;;;;;;;24.20;99.90;;;;;;5013156;28;19913;-79
2022/06/15 01:28:04;;;;;;;;;;;24.20;99.90;;;;;;5013559;28;19910;-78
2022/06/15 01:30:39;;;;;;;;;;;24.10;99.90;;;;;;5015095;28;19910;-79
2022/06/15 01:33:13;;;;;;;;;;;24.20;99.90;;;;;;5019808;28;19922;-79
2022/06/15 01:35:48;;;;;;;;;;;24.20;99.90;;;;;;5019800;28;19913;-79
2022/06/15 01:38:30;;;;;;;;;;;24.10;99.90;;;;;;5014982;28;20003;-78
2022/06/15 01:40:58;;;;;;;;;;;24.10;99.90;;;;;;5017216;28;19909;-78
2022/06/15 01:43:27;;;;;;;;;;;24.10;99.90;;;;;;5019396;28;19909;-79
2022/06/15 01:45:53;;;;;;;;;;;24.10;99.90;;;;;;5019609;28;19917;-78
2022/06/15 01:48:19;;;;;;;;;;;24.00;99.90;;;;;;5019693;28;19910;-78
2022/06/15 01:50:47;;;;;;;;;;;24.00;99.90;;;;;;5020090;28;20369;-78
2022/06/15 01:53:21;;;;;;;;;;;24.00;99.90;;;;;;5018755;28;20370;-78
2022/06/15 01:55:50;;;;;;;;;;;24.00;99.90;;;;;;5033148;28;19909;-79
2022/06/15 01:58:16;;;;;;;;;;;24.00;99.90;;;;;;5019831;28;20258;-79
2022/06/15 02:00:45;;;;;;;;;;;24.00;99.90;;;;;;5019391;28;19956;-79
2022/06/15 02:03:33;;;;;;;;;;;24.00;99.90;;;;;;5019472;28;19983;-79
2022/06/15 02:06:05;;;;;;;;;;;24.00;99.90;;;;;;5006028;28;19925;-79
2022/06/15 02:08:50;;;;;;;;;;;24.00;99.90;;;;;;5019434;28;19992;-79
2022/06/15 02:11:42;;;;;;;;;;;24.00;99.90;;;;;;5015259;28;20307;-79
2022/06/15 02:14:11;;;;;;;;;;;24.00;99.90;;;;;;5015836;28;19909;-79
2022/06/15 02:16:59;;;;;;;;;;;24.00;99.90;;;;;;5019476;28;19905;-79
2022/06/15 02:19:32;;;;;;;;;;;24.00;99.90;;;;;;5013233;28;19916;-78
2022/06/15 02:22:01;;;;;;;;;;;24.00;99.90;;;;;;5018913;28;20008;-79
2022/06/15 02:24:27;;;;;;;;;;;24.00;99.90;;;;;;5019499;28;19909;-78
2022/06/15 02:26:53;;;;;;;;;;;24.00;99.90;;;;;;5019805;28;19924;-78
2022/06/15 02:29:21;;;;;;;;;;;24.00;99.90;;;;;;5018408;28;19905;-78
2022/06/15 02:31:46;;;;;;;;;;;24.00;99.90;;;;;;5019787;28;20003;-79
2022/06/15 02:34:12;;;;;;;;;;;24.00;99.90;;;;;;5019598;28;20335;-78
2022/06/15 02:36:38;;;;;;;;;;;24.00;99.90;;;;;;5019040;28;19909;-79
2022/06/15 02:39:04;;;;;;;;;;;24.00;99.90;;;;;;5019204;28;20008;-79
2022/06/15 02:41:30;;;;;;;;;;;24.00;99.90;;;;;;5018642;28;19906;-79
2022/06/15 02:43:56;;;;;;;;;;;24.00;99.90;;;;;;5014788;28;19905;-79
2022/06/15 02:46:23;;;;;;;;;;;24.00;99.90;;;;;;5015904;28;19939;-78
2022/06/15 02:48:50;;;;;;;;;;;23.90;99.90;;;;;;5010329;28;20392;-78
2022/06/15 02:51:22;;;;;;;;;;;23.80;99.90;;;;;;5009973;28;20294;-79
2022/06/15 02:53:49;;;;;;;;;;;23.70;99.90;;;;;;5001165;28;19913;-79
2022/06/15 02:56:16;;;;;;;;;;;23.80;99.90;;;;;;5015088;28;20341;-78
2022/06/15 02:58:43;;;;;;;;;;;23.80;99.90;;;;;;5015261;28;20286;-79
2022/06/15 03:01:09;;;;;;;;;;;23.80;99.90;;;;;;5015579;28;19910;-79
2022/06/15 03:03:35;;;;;;;;;;;23.80;99.90;;;;;;5015715;28;20440;-79
2022/06/15 03:06:01;;;;;;;;;;;23.70;99.90;;;;;;5015412;28;20322;-79
2022/06/15 03:08:26;;;;;;;;;;;23.70;99.90;;;;;;5015946;28;19905;-79
2022/06/15 03:10:55;;;;;;;;;;;23.60;99.90;;;;;;5014583;28;19951;-79
2022/06/15 03:13:20;;;;;;;;;;;23.60;99.90;;;;;;5015354;28;19913;-79
2022/06/15 03:15:46;;;;;;;;;;;23.60;99.90;;;;;;5015621;28;19915;-79
2022/06/15 03:18:12;;;;;;;;;;;23.60;99.90;;;;;;5015659;28;19932;-79
2022/06/15 03:20:37;;;;;;;;;;;23.60;99.90;;;;;;5015273;28;19913;-79
2022/06/15 03:23:06;;;;;;;;;;;23.60;99.90;;;;;;5029806;28;20374;-79
2022/06/15 03:25:32;;;;;;;;;;;23.50;99.90;;;;;;5014971;28;19967;-79
2022/06/15 03:27:58;;;;;;;;;;;23.50;99.90;;;;;;5015223;28;19913;-78
2022/06/15 03:30:23;;;;;;;;;;;23.50;99.90;;;;;;5015248;28;20396;-78
2022/06/15 03:32:49;;;;;;;;;;;23.50;99.90;;;;;;5015380;28;19909;-79
2022/06/15 03:35:14;;;;;;;;;;;23.50;99.90;;;;;;5014155;28;19905;-79
2022/06/15 03:37:40;;;;;;;;;;;23.40;99.90;;;;;;5015239;28;19909;-79
2022/06/15 03:40:06;;;;;;;;;;;23.40;99.90;;;;;;5014868;28;19914;-78
2022/06/15 03:42:32;;;;;;;;;;;23.50;99.90;;;;;;5014918;28;19979;-79
2022/06/15 03:44:57;;;;;;;;;;;23.40;99.90;;;;;;5014952;28;20362;-79
2022/06/15 03:47:23;;;;;;;;;;;23.30;99.90;;;;;;5014351;28;19940;-79
2022/06/15 03:49:50;;;;;;;;;;;23.30;99.90;;;;;;5014418;28;19913;-79
2022/06/15 03:52:16;;;;;;;;;;;23.30;99.90;;;;;;5014705;28;19916;-79
2022/06/15 03:54:42;;;;;;;;;;;23.30;99.90;;;;;;5014356;28;20429;-79
2022/06/15 03:57:09;;;;;;;;;;;23.20;99.90;;;;;;5014615;28;19996;-78
2022/06/15 03:59:34;;;;;;;;;;;23.10;99.90;;;;;;5015306;28;20000;-79
2022/06/15 04:02:00;;;;;;;;;;;23.10;99.90;;;;;;5013604;28;20314;-79
2022/06/15 04:04:25;;;;;;;;;;;23.10;99.90;;;;;;5014156;28;20367;-78
2022/06/15 04:06:51;;;;;;;;;;;23.10;99.90;;;;;;5014382;28;20393;-79
2022/06/15 04:09:23;;;;;;;;;;;23.10;99.90;;;;;;5014510;28;20378;-79
2022/06/15 04:12:10;;;;;;;;;;;23.10;99.90;;;;;;5014370;28;20079;-79
2022/06/15 04:14:36;;;;;;;;;;;23.10;99.90;;;;;;5014836;28;20037;-79
2022/06/15 04:17:02;;;;;;;;;;;23.20;99.90;;;;;;5013495;28;19976;-79
2022/06/15 04:19:29;;;;;;;;;;;23.20;99.90;;;;;;5013793;28;20029;-79
2022/06/15 04:21:55;;;;;;;;;;;23.00;99.90;;;;;;5014153;28;19917;-78
2022/06/15 04:24:21;;;;;;;;;;;23.00;99.90;;;;;;5008770;28;19914;-79
2022/06/15 04:26:47;;;;;;;;;;;23.10;99.90;;;;;;5013985;28;19917;-79
2022/06/15 04:29:14;;;;;;;;;;;23.10;99.90;;;;;;5013581;28;19960;-79
2022/06/15 04:31:39;;;;;;;;;;;23.10;99.90;;;;;;5015435;28;19975;-79
2022/06/15 04:34:05;;;;;;;;;;;23.10;99.90;;;;;;5014091;28;20362;-79
2022/06/15 04:36:31;;;;;;;;;;;23.20;99.90;;;;;;5008400;28;19920;-76
2022/06/15 04:38:57;;;;;;;;;;;23.20;99.90;;;;;;5013942;28;19992;-78
2022/06/15 04:41:22;;;;;;;;;;;23.20;99.90;;;;;;5012969;28;19906;-75
2022/06/15 04:43:48;;;;;;;;;;;23.30;99.90;;;;;;5014230;28;19912;-76
2022/06/15 04:46:13;;;;;;;;;;;23.10;99.90;;;;;;5013785;28;19918;-78
2022/06/15 04:48:40;;;;;;;;;;;23.10;99.90;;;;;;5013527;28;19910;-78
2022/06/15 04:51:12;;;;;;;;;;;23.20;99.90;;;;;;5013822;28;19917;-77
2022/06/15 04:53:38;;;;;;;;;;;23.20;99.90;;;;;;5014113;28;19940;-79
2022/06/15 04:56:04;;;;;;;;;;;23.10;99.90;;;;;;5012683;28;19905;-79
2022/06/15 04:58:30;;;;;;;;;;;23.20;99.90;;;;;;5013801;28;20465;-79
2022/06/15 05:00:55;;;;;;;;;;;23.30;99.90;;;;;;5013520;28;19956;-79
2022/06/15 05:03:21;;;;;;;;;;;23.30;99.90;;;;;;5013653;28;19909;-81
2022/06/15 05:05:46;;;;;;;;;;;23.30;99.90;;;;;;5014021;28;19921;-79
2022/06/15 05:08:12;;;;;;;;;;;23.30;99.90;;;;;;5012742;28;19905;-78
2022/06/15 05:10:37;;;;;;;;;;;23.30;99.90;;;;;;5013352;28;19916;-80
2022/06/15 05:13:03;;;;;;;;;;;23.20;99.90;;;;;;5013743;28;19924;-79
2022/06/15 05:15:29;;;;;;;;;;;23.40;99.90;;;;;;5013809;28;19913;-79
2022/06/15 05:17:55;;;;;;;;;;;23.40;99.90;;;;;;5013166;28;19910;-77
2022/06/15 05:20:20;;;;;;;;;;;23.50;99.90;;;;;;5012379;28;20123;-73
2022/06/15 05:22:50;;;;;;;;;;;23.50;99.90;;;;;;5013699;28;19909;-78
2022/06/15 05:25:16;;;;;;;;;;;23.50;99.90;;;;;;5013137;28;20350;-78
2022/06/15 05:27:41;;;;;;;;;;;23.60;99.90;;;;;;5013313;28;19963;-78
2022/06/15 05:30:07;;;;;;;;;;;23.60;99.90;;;;;;5013219;28;20003;-78
2022/06/15 05:32:33;;;;;;;;;;;23.60;99.90;;;;;;5013274;28;19992;-77
2022/06/15 05:35:00;;;;;;;;;;;23.70;99.90;;;;;;5012669;28;19913;-77
2022/06/15 05:37:27;;;;;;;;;;;23.70;99.90;;;;;;5012947;28;19948;-77
2022/06/15 05:39:52;;;;;;;;;;;23.80;99.90;;;;;;5013134;28;19910;-78
2022/06/15 05:42:18;;;;;;;;;;;23.80;99.90;;;;;;5013524;28;19960;-78
2022/06/15 05:44:48;;;;;;;;;;;23.90;99.90;;;;;;5013228;28;19909;-78
2022/06/15 05:47:13;;;;;;;;;;;24.00;99.90;;;;;;5007965;28;20362;-77
2022/06/15 05:49:39;;;;;;;;;;;24.00;99.90;;;;;;5013136;28;19960;-77
2022/06/15 05:52:05;;;;;;;;;;;24.10;99.90;;;;;;5013236;28;19910;-77
2022/06/15 05:54:30;;;;;;;;;;;24.10;99.90;;;;;;5013245;28;20436;-77
2022/06/15 05:56:56;;;;;;;;;;;24.00;99.90;;;;;;5013136;28;20004;-78
2022/06/15 05:59:21;;;;;;;;;;;24.10;99.90;;;;;;5012093;28;19948;-78
2022/06/15 06:01:47;;;;;;;;;;;24.10;99.90;;;;;;5012672;28;19913;-78
2022/06/15 06:04:14;;;;;;;;;;;24.10;99.90;;;;;;5012664;28;20317;-78
2022/06/15 06:06:40;;;;;;;;;;;24.10;99.90;;;;;;5012940;28;19917;-78
2022/06/15 06:09:05;;;;;;;;;;;24.20;99.90;;;;;;5012928;28;19924;-80
2022/06/15 06:11:31;;;;;;;;;;;24.30;99.90;;;;;;5012791;28;19940;-79
2022/06/15 06:13:56;;;;;;;;;;;24.30;99.90;;;;;;5011237;28;19905;-74
2022/06/15 06:16:22;;;;;;;;;;;24.40;99.90;;;;;;5012837;28;19913;-73
2022/06/15 06:18:47;;;;;;;;;;;24.50;99.90;;;;;;5016140;28;19985;-75
2022/06/15 06:21:13;;;;;;;;;;;24.50;99.90;;;;;;5016449;28;19918;-76
2022/06/15 06:23:39;;;;;;;;;;;24.60;99.90;;;;;;5016217;28;20358;-78
2022/06/15 06:26:04;;;;;;;;;;;24.60;99.90;;;;;;5015532;28;19924;-77
2022/06/15 06:28:31;;;;;;;;;;;24.70;99.90;;;;;;5010259;28;20429;-74
2022/06/15 06:30:58;;;;;;;;;;;24.70;99.90;;;;;;5014320;28;20313;-74
2022/06/15 06:33:28;;;;;;;;;;;24.80;99.90;;;;;;5011510;28;20275;-77
2022/06/15 06:35:54;;;;;;;;;;;24.90;99.90;;;;;;5011781;28;20310;-72
2022/06/15 06:38:21;;;;;;;;;;;25.00;99.90;;;;;;5011608;28;19971;-73
2022/06/15 06:40:51;;;;;;;;;;;25.00;99.90;;;;;;5024113;28;20393;-73
2022/06/15 06:43:17;;;;;;;;;;;25.10;99.70;;;;;;5014775;28;19905;-74
2022/06/15 06:45:42;;;;;;;;;;;25.10;99.50;;;;;;5011516;28;19919;-75
2022/06/15 06:48:08;;;;;;;;;;;25.10;99.10;;;;;;5011670;28;20421;-75
2022/06/15 06:50:35;;;;;;;;;;;25.10;98.90;;;;;;5012623;28;19940;-76
2022/06/15 06:53:02;;;;;;;;;;;25.10;97.60;;;;;;5017578;28;19924;-76
2022/06/15 06:55:28;;;;;;;;;;;25.10;97.90;;;;;;5012983;28;19910;-76
2022/06/15 06:57:57;;;;;;;;;;;25.20;97.40;;;;;;5011323;28;20003;-75
2022/06/15 07:00:22;;;;;;;;;;;25.20;97.60;;;;;;5011371;28;19909;-75
2022/06/15 07:02:48;;;;;;;;;;;25.30;96.50;;;;;;5010163;28;19962;-76
2022/06/15 07:05:13;;;;;;;;;;;25.30;95.80;;;;;;5014117;28;20374;-75
2022/06/15 07:07:39;;;;;;;;;;;25.30;95.50;;;;;;5011587;28;19917;-75
2022/06/15 07:10:06;;;;;;;;;;;25.30;95.00;;;;;;5011118;28;20445;-75
2022/06/15 07:12:32;;;;;;;;;;;25.30;94.50;;;;;;5008907;28;19924;-76
2022/06/15 07:14:58;;;;;;;;;;;25.40;95.80;;;;;;5005679;28;19910;-75
2022/06/15 07:17:23;;;;;;;;;;;25.40;95.30;;;;;;5011922;28;19909;-77
2022/06/15 07:19:49;;;;;;;;;;;25.50;95.50;;;;;;5015536;28;19913;-74
2022/06/15 07:22:15;;;;;;;;;;;25.60;95.20;;;;;;5007500;28;20390;-75
2022/06/15 07:24:40;;;;;;;;;;;25.60;95.20;;;;;;5018190;28;19917;-75
2022/06/15 07:27:06;;;;;;;;;;;25.70;94.60;;;;;;5010254;28;19932;-75
2022/06/15 07:29:31;;;;;;;;;;;25.80;94.00;;;;;;5008983;28;19905;-76
2022/06/15 07:31:59;;;;;;;;;;;25.80;94.40;;;;;;5011008;28;20301;-75
2022/06/15 07:34:27;;;;;;;;;;;25.90;93.90;;;;;;5018799;28;19920;-75
2022/06/15 07:36:53;;;;;;;;;;;26.00;93.30;;;;;;5015869;28;19909;-76
2022/06/15 07:39:20;;;;;;;;;;;26.10;93.20;;;;;;5009635;28;19933;-75
2022/06/15 07:41:46;;;;;;;;;;;26.10;92.70;;;;;;5009563;28;20347;-76
2022/06/15 07:44:11;;;;;;;;;;;26.20;92.10;;;;;;5009600;28;19944;-75
2022/06/15 07:46:37;;;;;;;;;;;26.30;91.20;;;;;;5008747;28;19979;-75
2022/06/15 07:51:55;;;;;;;;;;;26.40;89.40;;;;;;5002327;28;19916;-74
2022/06/15 07:54:21;;;;;;;;;;;26.50;90.00;;;;;;5009088;28;19914;-75
2022/06/15 07:56:47;;;;;;;;;;;26.50;90.10;;;;;;5010866;28;20004;-74
2022/06/15 07:59:13;;;;;;;;;;;26.60;89.10;;;;;;5012772;28;19941;-74
2022/06/15 08:01:40;;;;;;;;;;;26.60;88.40;;;;;;5008493;28;20346;-74
2022/06/15 08:04:06;;;;;;;;;;;26.60;89.40;;;;;;5008541;28;19910;-75
2022/06/15 08:06:33;;;;;;;;;;;26.70;87.90;;;;;;5010403;28;19921;-74
2022/06/15 08:08:59;;;;;;;;;;;26.80;86.70;;;;;;5008737;28;19913;-74
2022/06/15 08:11:24;;;;;;;;;;;26.90;85.10;;;;;;5010427;28;19940;-74
2022/06/15 08:13:50;;;;;;;;;;;26.90;83.40;;;;;;5013958;28;19913;-74
2022/06/15 08:16:16;;;;;;;;;;;26.90;83.40;;;;;;5008608;28;19909;-74
2022/06/15 08:18:48;;;;;;;;;;;26.90;81.70;;;;;;5008788;28;19918;-74
2022/06/15 08:21:19;;;;;;;;;;;27.00;82.40;;;;;;5008614;28;19956;-74
2022/06/15 08:23:46;;;;;;;;;;;27.00;80.00;;;;;;5000047;28;19913;-74
2022/06/15 08:26:13;;;;;;;;;;;27.10;79.30;;;;;;5008038;28;19956;-75
2022/06/15 08:28:41;;;;;;;;;;;27.10;80.10;;;;;;5008768;28;19912;-75
2022/06/15 08:31:07;;;;;;;;;;;27.10;81.40;;;;;;5008043;28;19949;-77
2022/06/15 08:33:32;;;;;;;;;;;27.10;81.10;;;;;;5011583;28;19944;-78
2022/06/15 08:35:58;;;;;;;;;;;27.10;82.60;;;;;;5010024;28;20385;-78
2022/06/15 08:38:25;;;;;;;;;;;27.10;83.90;;;;;;5011061;28;19911;-77
2022/06/15 08:40:55;;;;;;;;;;;27.10;84.80;;;;;;5008924;28;20051;-78
2022/06/15 08:43:35;;;;;;;;;;;27.20;84.60;;;;;;5008268;28;20377;-78
2022/06/15 08:46:10;;;;;;;;;;;27.30;84.30;;;;;;5010016;28;19913;-78
2022/06/15 08:48:46;;;;;;;;;;;27.30;83.80;;;;;;5007782;28;20412;-78
2022/06/15 08:51:32;;;;;;;;;;;27.20;83.50;;;;;;5023541;28;19918;-78
2022/06/15 08:54:01;;;;;;;;;;;27.30;82.90;;;;;;4992606;28;19905;-78
2022/06/15 08:56:34;;;;;;;;;;;27.20;82.00;;;;;;5009839;28;19909;-77
2022/06/15 08:59:00;;;;;;;;;;;27.30;80.70;;;;;;5011436;28;19917;-78
2022/06/15 09:01:45;;;;;;;;;;;27.40;79.20;;;;;;5005356;28;20341;-78
2022/06/15 09:04:11;;;;;;;;;;;27.40;80.60;;;;;;5007843;28;19909;-77
2022/06/15 09:06:36;;;;;;;;;;;27.60;78.70;;;;;;5007850;28;19920;-78
2022/06/15 09:09:02;;;;;;;;;;;27.50;79.90;;;;;;5008164;28;20385;-78
2022/06/15 09:11:46;;;;;;;;;;;27.60;78.50;;;;;;5010901;28;19910;-77
2022/06/15 09:14:15;;;;;;;;;;;27.60;77.70;;;;;;5012167;28;20041;-78
2022/06/15 09:16:53;;;;;;;;;;;27.60;78.50;;;;;;5007973;28;20251;-77
2022/06/15 09:19:25;;;;;;;;;;;27.60;77.30;;;;;;5007996;28;19909;-77
2022/06/15 09:21:54;;;;;;;;;;;27.70;76.00;;;;;;5007970;28;19921;-78
2022/06/15 09:24:19;;;;;;;;;;;27.70;74.80;;;;;;5009975;28;19920;-78
2022/06/15 09:26:49;;;;;;;;;;;27.70;75.40;;;;;;5008527;28;20294;-77
2022/06/15 09:29:30;;;;;;;;;;;27.80;75.10;;;;;;5007555;28;19952;-78
2022/06/15 09:31:58;;;;;;;;;;;27.80;75.70;;;;;;5013782;28;19917;-77
2022/06/15 09:34:40;;;;;;;;;;;27.80;74.90;;;;;;5009230;28;19905;-78
2022/06/15 09:37:08;;;;;;;;;;;27.80;74.50;;;;;;5007110;28;19909;-78
2022/06/15 09:39:36;;;;;;;;;;;27.80;74.20;;;;;;5007407;28;19912;-78
2022/06/15 09:42:08;;;;;;;;;;;27.80;74.30;;;;;;5008804;28;20460;-78
2022/06/15 09:44:40;;;;;;;;;;;27.90;73.30;;;;;;5009169;28;19909;-77
2022/06/15 09:47:24;;;;;;;;;;;28.00;72.50;;;;;;5010636;28;19924;-78
2022/06/15 09:50:09;;;;;;;;;;;28.10;72.60;;;;;;5010581;28;19909;-78
2022/06/15 09:52:34;;;;;;;;;;;28.20;72.80;;;;;;5009715;28;19906;-78
2022/06/15 09:55:07;;;;;;;;;;;28.20;72.50;;;;;;5012919;28;19909;-78
2022/06/15 09:57:33;;;;;;;;;;;28.30;72.90;;;;;;5010863;28;19992;-78
2022/06/15 10:00:00;;;;;;;;;;;28.40;71.60;;;;;;5011291;28;20048;-77
2022/06/15 10:02:30;;;;;;;;;;;28.50;71.40;;;;;;5013648;28;19905;-74
2022/06/15 10:04:57;;;;;;;;;;;28.50;72.80;;;;;;5015456;28;20305;-78
2022/06/15 10:07:28;;;;;;;;;;;28.50;73.50;;;;;;5011045;28;20000;-77
2022/06/15 10:10:13;;;;;;;;;;;28.40;74.80;;;;;;5011507;28;19910;-78
2022/06/15 10:12:56;;;;;;;;;;;28.40;74.90;;;;;;5013143;28;20532;-79
2022/06/15 10:15:34;;;;;;;;;;;28.50;73.00;;;;;;5011480;28;19992;-74
2022/06/15 10:18:02;;;;;;;;;;;28.50;74.00;;;;;;5011698;28;19968;-75
2022/06/15 10:20:35;;;;;;;;;;;28.60;76.00;;;;;;5013373;28;20390;-77
2022/06/15 10:23:05;;;;;;;;;;;28.60;77.00;;;;;;5013802;28;19932;-78
2022/06/15 10:25:33;;;;;;;;;;;28.70;76.90;;;;;;5010793;28;19916;-78
2022/06/15 10:28:19;;;;;;;;;;;28.80;75.60;;;;;;5011488;28;20393;-78
2022/06/15 10:30:53;;;;;;;;;;;28.80;76.80;;;;;;5010858;28;19905;-76
2022/06/15 10:33:19;;;;;;;;;;;28.80;75.00;;;;;;5011399;28;20236;-79
2022/06/15 10:35:55;;;;;;;;;;;28.80;75.80;;;;;;4995603;28;19936;-77
2022/06/15 10:38:21;;;;;;;;;;;28.80;77.60;;;;;;5011118;28;19914;-77
2022/06/15 10:40:52;;;;;;;;;;;28.80;76.20;;;;;;5012551;28;19909;-77
2022/06/15 10:43:23;;;;;;;;;;;28.80;76.70;;;;;;5012695;28;19909;-77
2022/06/15 10:45:54;;;;;;;;;;;28.90;76.30;;;;;;5010266;28;19921;-78
2022/06/15 10:48:23;;;;;;;;;;;28.90;77.40;;;;;;5011078;28;19909;-77
2022/06/15 10:50:52;;;;;;;;;;;29.10;76.40;;;;;;5010718;28;19910;-78
2022/06/15 10:53:24;;;;;;;;;;;29.10;76.50;;;;;;5014380;28;20010;-77
2022/06/15 11:04:23;;;;;;;;;;;29.00;75.50;;;;;;5009098;28;19916;-75
2022/06/15 11:06:53;;;;;;;;;;;28.90;75.50;;;;;;5009900;28;20421;-77
2022/06/15 11:09:24;;;;;;;;;;;28.90;76.40;;;;;;5010827;28;20354;-76
2022/06/15 11:11:50;;;;;;;;;;;28.90;74.60;;;;;;4997199;28;19964;-78
2022/06/15 11:14:36;;;;;;;;;;;28.90;75.90;;;;;;5014750;28;19991;-77
2022/06/15 11:20:41;;;;;;;;;;;28.80;76.00;;;;;;4972588;28;19932;-78
2022/06/15 11:23:16;;;;;;;;;;;28.80;75.10;;;;;;4973574;28;19910;-76
2022/06/15 11:25:44;;;;;;;;;;;28.80;76.20;;;;;;4972647;28;19914;-76
2022/06/15 11:28:13;;;;;;;;;;;28.90;77.30;;;;;;4972730;28;20009;-76
2022/06/15 11:30:43;;;;;;;;;;;28.80;77.60;;;;;;4972807;28;19906;-75
2022/06/15 11:33:20;;;;;;;;;;;28.70;78.40;;;;;;4972488;28;19918;-76
2022/06/15 11:36:00;;;;;;;;;;;28.70;79.00;;;;;;4957065;28;19929;-75
2022/06/15 11:38:34;;;;;;;;;;;28.80;79.60;;;;;;4954337;28;19910;-76
2022/06/15 11:41:03;;;;;;;;;;;28.70;80.50;;;;;;4973272;28;19965;-82
2022/06/15 11:43:28;;;;;;;;;;;28.70;81.00;;;;;;4972136;28;19914;-79
2022/06/15 11:46:09;;;;;;;;;;;28.70;80.80;;;;;;4972251;28;20005;-80
2022/06/15 11:48:35;;;;;;;;;;;28.80;81.50;;;;;;4972085;28;19935;-80
2022/06/15 11:51:00;;;;;;;;;;;28.90;86.60;;;;;;4972310;28;20359;-80
2022/06/15 11:53:28;;;;;;;;;;;28.80;89.30;;;;;;4972724;28;19914;-80
2022/06/15 11:55:58;;;;;;;;;;;28.70;90.00;;;;;;4998948;28;19960;-80
2022/06/15 11:58:40;;;;;;;;;;;28.70;90.30;;;;;;5014723;28;19912;-79
2022/06/15 12:01:22;;;;;;;;;;;28.70;90.20;;;;;;5014109;28;19913;-80
2022/06/15 12:03:59;;;;;;;;;;;28.70;90.70;;;;;;5014300;28;20000;-80
2022/06/15 12:06:25;;;;;;;;;;;28.60;90.60;;;;;;5013901;28;20473;-79
2022/06/15 12:08:50;;;;;;;;;;;28.70;90.30;;;;;;5014377;28;19933;-80
2022/06/15 12:14:09;;;;;;;;;;;28.80;90.20;;;;;;5012852;28;19920;-80
2022/06/15 12:16:39;;;;;;;;;;;28.80;90.40;;;;;;5013692;28;19905;-80
2022/06/15 12:19:12;;;;;;;;;;;28.90;90.20;;;;;;5013696;28;19917;-80
2022/06/15 12:21:56;;;;;;;;;;;28.90;90.10;;;;;;5010141;28;20295;-80
2022/06/15 12:24:29;;;;;;;;;;;29.00;90.60;;;;;;5007554;28;19917;-79
2022/06/15 12:27:09;;;;;;;;;;;28.90;90.90;;;;;;5006681;28;19929;-78
2022/06/15 12:29:44;;;;;;;;;;;28.90;90.90;;;;;;5009009;28;19916;-78
2022/06/15 12:34:58;;;;;;;;;;;28.80;91.20;;;;;;5010447;28;20328;-78
2022/06/15 12:37:33;;;;;;;;;;;29.00;91.30;;;;;;5006804;28;19959;-79
2022/06/15 12:40:01;;;;;;;;;;;29.00;91.10;;;;;;5004773;28;19913;-80
2022/06/15 12:42:28;;;;;;;;;;;29.10;90.60;;;;;;5007131;28;20000;-78
2022/06/15 12:45:13;;;;;;;;;;;29.10;90.20;;;;;;5006882;28;19921;-79
2022/06/15 12:47:39;;;;;;;;;;;29.10;90.50;;;;;;5007378;28;19976;-79
2022/06/15 12:50:04;;;;;;;;;;;29.00;90.70;;;;;;5009209;28;20433;-79
2022/06/15 12:52:43;;;;;;;;;;;29.00;90.10;;;;;;5006893;28;20004;-79
2022/06/15 12:55:13;;;;;;;;;;;28.90;91.00;;;;;;5006461;28;20402;-79
2022/06/15 12:57:39;;;;;;;;;;;28.90;90.70;;;;;;5006004;28;19928;-80
2022/06/15 13:00:04;;;;;;;;;;;28.90;91.00;;;;;;5007384;28;20298;-80
2022/06/15 13:02:34;;;;;;;;;;;29.00;90.70;;;;;;5009411;28;20021;-80
2022/06/15 13:04:59;;;;;;;;;;;29.00;90.80;;;;;;5007373;28;20261;-81
2022/06/15 13:07:35;;;;;;;;;;;29.10;90.50;;;;;;5006323;28;19922;-80
2022/06/15 13:10:06;;;;;;;;;;;29.20;90.60;;;;;;5006330;28;19945;-80
2022/06/15 13:12:43;;;;;;;;;;;29.20;90.70;;;;;;5006417;28;20408;-80
2022/06/15 13:15:17;;;;;;;;;;;29.20;90.40;;;;;;5006251;28;19918;-81
2022/06/15 13:18:13;;;;;;;;;;;29.20;90.60;;;;;;5007278;28;19963;-80
2022/06/15 13:20:48;;;;;;;;;;;29.00;90.50;;;;;;5006828;28;20523;-80
2022/06/15 13:23:34;;;;;;;;;;;29.20;89.70;;;;;;5009067;28;20087;-80
2022/06/15 13:26:10;;;;;;;;;;;29.30;89.80;;;;;;5006822;28;20448;-81
2022/06/15 13:28:38;;;;;;;;;;;29.30;86.00;;;;;;5006218;28;19913;-81
2022/06/15 13:31:06;;;;;;;;;;;29.20;87.30;;;;;;5005549;28;20283;-80
2022/06/15 13:33:48;;;;;;;;;;;29.20;86.20;;;;;;5005684;28;19921;-81
2022/06/15 13:36:14;;;;;;;;;;;29.20;87.70;;;;;;5006166;28;20333;-80
2022/06/15 13:38:41;;;;;;;;;;;29.30;85.90;;;;;;5007085;28;19914;-80
2022/06/15 13:41:27;;;;;;;;;;;29.40;84.80;;;;;;5007418;28;19913;-84
2022/06/15 13:43:53;;;;;;;;;;;29.30;77.80;;;;;;5007681;28;19960;-83
2022/06/15 13:46:25;;;;;;;;;;;29.30;77.90;;;;;;5005384;28;19917;-84
2022/06/15 13:48:52;;;;;;;;;;;29.30;78.50;;;;;;5006268;28;20003;-84
2022/06/15 13:51:34;;;;;;;;;;;29.30;76.10;;;;;;5005768;28;19935;-85
2022/06/15 13:54:22;;;;;;;;;;;29.30;77.20;;;;;;4992146;28;20071;-79
2022/06/15 13:57:11;;;;;;;;;;;29.30;77.30;;;;;;4989250;28;19936;-78
2022/06/15 13:59:43;;;;;;;;;;;29.40;76.50;;;;;;5005622;28;19909;-78
2022/06/15 14:02:14;;;;;;;;;;;29.30;77.40;;;;;;5008365;28;19944;-78
2022/06/15 14:04:46;;;;;;;;;;;29.40;76.70;;;;;;5006807;28;20012;-79
2022/06/15 14:07:11;;;;;;;;;;;29.40;75.20;;;;;;5008247;28;20294;-79
2022/06/15 14:09:50;;;;;;;;;;;29.40;75.40;;;;;;5007125;28;19916;-79
2022/06/15 14:12:34;;;;;;;;;;;29.40;75.30;;;;;;5008188;28;19909;-79
2022/06/15 14:15:14;;;;;;;;;;;29.50;73.40;;;;;;4994308;28;20486;-79
2022/06/15 14:17:58;;;;;;;;;;;29.40;73.50;;;;;;5010272;28;19947;-80
2022/06/15 14:20:30;;;;;;;;;;;29.50;72.60;;;;;;5007559;28;20002;-79
2022/06/15 14:22:57;;;;;;;;;;;29.50;72.70;;;;;;5011957;28;20391;-79
2022/06/15 14:25:23;;;;;;;;;;;29.60;72.90;;;;;;5012443;28;19914;-79
2022/06/15 14:27:54;;;;;;;;;;;29.60;72.00;;;;;;5012562;28;20301;-80
2022/06/15 14:30:26;;;;;;;;;;;29.50;72.20;;;;;;5012731;28;19909;-79
2022/06/15 14:32:56;;;;;;;;;;;29.60;71.80;;;;;;4997635;28;20419;-81
2022/06/15 14:35:22;;;;;;;;;;;29.60;72.70;;;;;;5011715;28;19910;-79
2022/06/15 14:37:55;;;;;;;;;;;29.60;73.10;;;;;;5013790;28;19917;-80
2022/06/15 14:40:29;;;;;;;;;;;29.60;72.00;;;;;;5015980;28;19910;-78
2022/06/15 14:42:56;;;;;;;;;;;29.70;72.50;;;;;;5015531;28;19941;-82
2022/06/15 14:45:31;;;;;;;;;;;29.80;71.50;;;;;;5010577;28;20298;-84
2022/06/15 14:48:02;;;;;;;;;;;29.70;70.60;;;;;;5016045;28;20293;-84
2022/06/15 14:50:28;;;;;;;;;;;29.60;71.60;;;;;;5015578;28;19909;-84